WetterOnline ( https://www.wetteronline.at )

Wetter aktuell Hoyerswerda

Aktuelles Wetter: Hoyerswerda (116m)

6-stündlich | Neueste Meldungen
Ortszeit Temperatur Wetter
Fr, 14.08. 14:00 30.0° C wolkig
Fr, 14.08. 8:00 22.1° C wolkig
Fr, 14.08. 2:00 20.6° C wolkig
Do, 13.08. 20:00 27.8° C bedeckt
Do, 13.08. 14:00 31.4° C bewölkt
Do, 13.08. 8:00 22.4° C wolkig
Do, 13.08. 2:00 21.4° C wolkenlos
Mi, 12.08. 20:00 29.3° C fast wolkenlos
Ortszeit Temperatur Wetter
Fr, 14.08. 19:30 21.6° C bedeckt
Fr, 14.08. 19:20 21.6° C bedeckt
Fr, 14.08. 19:10 21.7° C bedeckt
Fr, 14.08. 19:00 22.0° C bewölkt
Fr, 14.08. 18:50 22.0° C bewölkt
Fr, 14.08. 18:40 22.1° C bedeckt
Fr, 14.08. 18:30 22.9° C bedeckt
Fr, 14.08. 18:00 23.4° C bedeckt
Ortszeit Relative Feuchte Sichtweite
Fr, 14.08. 14:00 45% 35 km
Fr, 14.08. 8:00 63% 40 km
Fr, 14.08. 2:00 72% 40 km
Do, 13.08. 20:00 43% 55 km
Do, 13.08. 14:00 35% 55 km
Do, 13.08. 8:00 62% 40 km
Do, 13.08. 2:00 60% 50 km
Mi, 12.08. 20:00 34% 60 km
Ortszeit Relative Feuchte Sichtweite
Fr, 14.08. 19:30 77% 40 km
Fr, 14.08. 19:20 77% -
Fr, 14.08. 19:10 75% -
Fr, 14.08. 19:00 77% 35 km
Fr, 14.08. 18:50 77% -
Fr, 14.08. 18:40 76% -
Fr, 14.08. 18:30 72% 40 km
Fr, 14.08. 18:00 69% 50 km
Ortszeit Niederschlagsmenge Niederschlagsart
Fr, 14.08. 14:00 0.0 l/m2 in 6 Std. -
Fr, 14.08. 8:00 0.0 l/m2 in 12 Std. -
Fr, 14.08. 2:00 0.0 l/m2 in 6 Std. -
Do, 13.08. 20:00 0.1 l/m2 in 12 Std. Niederschlag
Do, 13.08. 14:00 0.0 l/m2 in 6 Std. -
Do, 13.08. 8:00 0.0 l/m2 in 12 Std. -
Do, 13.08. 2:00 0.0 l/m2 in 6 Std. -
Mi, 12.08. 20:00 0.0 l/m2 in 12 Std. -
Ortszeit Niederschlagsmenge Niederschlagsart
Fr, 14.08. 19:30 0.1 l/m2 in 1 Std. Schneeregen
Fr, 14.08. 19:20 keine Meldung -
Fr, 14.08. 19:10 keine Meldung -
Fr, 14.08. 19:00 0.0 l/m2 in 1 Std. -
Fr, 14.08. 18:50 keine Meldung -
Fr, 14.08. 18:40 keine Meldung -
Fr, 14.08. 18:30 0.0 l/m2 in 1 Std. -
Fr, 14.08. 18:00 0.0 l/m2 in 1 Std. -
Ortszeit Stärke Spitze Richtung
km/h Bft. km/h Grad Sektor
Fr, 14.08. 14:00 9 2 20 300° NW
Fr, 14.08. 8:00 7 2 14 250° W
Fr, 14.08. 2:00 4 1 11 200° S
Do, 13.08. 20:00 7 2 25 70° O
Do, 13.08. 14:00 9 2 24 100° O
Do, 13.08. 8:00 4 1 14 130° SO
Do, 13.08. 2:00 7 2 22 110° O
Mi, 12.08. 20:00 11 2 25 80° O
Ortszeit Stärke Spitze Richtung
km/h Bft. km/h Grad Sektor
Fr, 14.08. 19:30 4 1 14 180° S
Fr, 14.08. 19:20 4 1 - 180° S
Fr, 14.08. 19:10 7 2 - 170° S
Fr, 14.08. 19:00 7 2 18 190° S
Fr, 14.08. 18:50 7 2 - 190° S
Fr, 14.08. 18:40 9 2 - 190° S
Fr, 14.08. 18:30 7 2 19 160° S
Fr, 14.08. 18:00 7 2 22 170° S
Ortszeit Untergrenze Bedeckung Gattung
total tief tief mittel hoch
Fr, 14.08. 14:00 1500 m 6/8 5/8 - - -
Fr, 14.08. 8:00 2100 m 8/8 1/8 - - -
Fr, 14.08. 2:00 2700 m 8/8 3/8 - - -
Do, 13.08. 20:00 3600 m 8/8 8/8 - - -
Do, 13.08. 14:00 3900 m 7/8 7/8 - - -
Do, 13.08. 8:00 4200 m 5/8 5/8 - - -
Do, 13.08. 2:00 - 0/8 0/8 - - -
Mi, 12.08. 20:00 10500 m 1/8 0/8 - - -
Ortszeit Bedeckungsgrad in Achtel und Wolkenuntergrenze
Fr, 14.08. 19:30 8(3900m)
Fr, 14.08. 19:20 8(3900m)
Fr, 14.08. 19:10 2(3000m) 7(3900m) 8(4500m)
Fr, 14.08. 19:00 7(3000m) 7(4500m)
Fr, 14.08. 18:50 7(3000m) 7(4500m)
Fr, 14.08. 18:40 7(3300m) 8(3900m)
Fr, 14.08. 18:30 7(3900m) 8(4200m)
Fr, 14.08. 18:00 5(4500m) 8(5700m) 8(6600m)
Ortszeit Luftdruck NN (hPa) Tendenz (hPa in 3 Std.)
Fr, 14.08. 14:00 1011 - 0,7
Fr, 14.08. 8:00 1013 + 0,3
Fr, 14.08. 2:00 1012 - 0,1
Do, 13.08. 20:00 1012 - 0,3
Do, 13.08. 14:00 1013 - 1,0
Do, 13.08. 8:00 1015 - 0,1
Do, 13.08. 2:00 1016 - 0,2
Mi, 12.08. 20:00 1016 - 0,7
Ortszeit Luftdruck NN (hPa) Tendenz (hPa in 3 Std.)
Fr, 14.08. 19:30 1012 + 0,5
Fr, 14.08. 19:20 1012 keine Meldung
Fr, 14.08. 19:10 1012 keine Meldung
Fr, 14.08. 19:00 1012 + 0,8
Fr, 14.08. 18:50 1012 keine Meldung
Fr, 14.08. 18:40 1012 keine Meldung
Fr, 14.08. 18:30 1012 + 1,2
Fr, 14.08. 18:00 1012 + 1,0
Ortszeit Schneehöhe (cm)
Fr, 14.08. 14:00 -
Fr, 14.08. 8:00 -
Fr, 14.08. 2:00 -
Do, 13.08. 20:00 -
Do, 13.08. 14:00 -
Do, 13.08. 8:00 -
Do, 13.08. 2:00 -
Mi, 12.08. 20:00 -
Ortszeit Schneehöhe (cm)
Fr, 14.08. 19:30 -
Fr, 14.08. 19:20 -
Fr, 14.08. 19:10 -
Fr, 14.08. 19:00 -
Fr, 14.08. 18:50 -
Fr, 14.08. 18:40 -
Fr, 14.08. 18:30 -
Fr, 14.08. 18:00 -
Link zu dieser Seite / Seite empfehlen

Das Wetter in ...